Time;durP1;ratioP1;P1;durP2;ratioP2;P2;SDS_P1;SDS_P2;PMS_P1;PMS_P2;Temp;Humidity;BMP_temperature;BMP_pressure;BME280_temperature;BME280_humidity;BME280_pressure;Samples;Min_cycle;Max_cycle;Signal;HPM_P1;HPM_P2
2023/01/07 00:02:09;;;;;;;;;;;9.00;82.70;;;;;;5074147;28;20013;-87
2023/01/07 00:04:34;;;;;;;;;;;9.00;82.40;;;;;;5072261;28;19946;-87
2023/01/07 00:07:00;;;;;;;;;;;9.00;82.30;;;;;;5074434;28;19942;-87
2023/01/07 00:09:25;;;;;;;;;;;9.00;82.40;;;;;;5073190;28;20293;-87
2023/01/07 00:11:51;;;;;;;;;;;9.10;82.40;;;;;;5074105;28;19992;-87
2023/01/07 00:14:16;;;;;;;;;;;9.00;82.70;;;;;;5073427;28;20390;-87
2023/01/07 00:16:42;;;;;;;;;;;9.00;83.00;;;;;;5074048;28;19977;-87
2023/01/07 00:19:10;;;;;;;;;;;9.00;83.00;;;;;;5065834;28;19956;-87
2023/01/07 00:21:36;;;;;;;;;;;9.00;82.90;;;;;;5061186;28;19948;-87
2023/01/07 00:24:03;;;;;;;;;;;8.90;82.90;;;;;;5074122;28;20308;-87
2023/01/07 00:26:29;;;;;;;;;;;9.00;82.90;;;;;;5074014;28;19990;-87
2023/01/07 00:28:55;;;;;;;;;;;8.90;82.70;;;;;;5071958;28;20426;-87
2023/01/07 00:31:22;;;;;;;;;;;8.90;82.80;;;;;;5073711;28;19938;-86
2023/01/07 00:34:05;;;;;;;;;;;8.90;82.80;;;;;;5073132;28;19948;-86
2023/01/07 00:36:41;;;;;;;;;;;8.90;82.90;;;;;;5071796;28;19950;-87
2023/01/07 00:39:07;;;;;;;;;;;8.90;83.00;;;;;;5073763;28;19957;-87
2023/01/07 00:41:33;;;;;;;;;;;8.90;83.20;;;;;;5073792;28;20455;-87
2023/01/07 00:43:58;;;;;;;;;;;8.90;82.80;;;;;;5071483;28;19982;-87
2023/01/07 00:46:24;;;;;;;;;;;8.90;83.10;;;;;;5073662;28;19960;-87
2023/01/07 00:48:50;;;;;;;;;;;8.90;83.40;;;;;;5073730;28;19943;-87
2023/01/07 00:51:16;;;;;;;;;;;8.90;83.50;;;;;;5073437;28;19968;-87
2023/01/07 00:53:41;;;;;;;;;;;8.90;83.50;;;;;;5071047;28;20029;-87
2023/01/07 00:56:11;;;;;;;;;;;8.90;83.60;;;;;;5073389;28;19941;-87
2023/01/07 00:58:36;;;;;;;;;;;8.90;83.30;;;;;;5070338;28;20406;-87
2023/01/07 01:01:03;;;;;;;;;;;8.90;83.30;;;;;;5073457;28;20038;-87
2023/01/07 01:03:29;;;;;;;;;;;8.90;83.10;;;;;;5072465;28;20418;-87
2023/01/07 01:05:59;;;;;;;;;;;8.80;83.50;;;;;;5073279;28;20345;-86
2023/01/07 01:08:25;;;;;;;;;;;8.80;83.20;;;;;;5073405;28;19937;-87
2023/01/07 01:10:50;;;;;;;;;;;8.80;83.40;;;;;;5073265;28;19960;-86
2023/01/07 01:13:16;;;;;;;;;;;8.80;83.70;;;;;;5070824;28;19941;-87
2023/01/07 01:15:42;;;;;;;;;;;8.70;83.60;;;;;;5073128;28;19977;-87
2023/01/07 01:18:08;;;;;;;;;;;8.70;83.50;;;;;;5073169;28;20326;-86
2023/01/07 01:20:33;;;;;;;;;;;8.70;83.60;;;;;;5073221;28;19948;-86
2023/01/07 01:22:59;;;;;;;;;;;8.70;83.90;;;;;;5072079;28;19946;-87
2023/01/07 01:25:24;;;;;;;;;;;8.70;84.00;;;;;;5073131;28;19946;-86
2023/01/07 01:27:50;;;;;;;;;;;8.70;84.00;;;;;;5072351;28;19941;-87
2023/01/07 01:30:15;;;;;;;;;;;8.60;84.10;;;;;;5071616;28;19990;-86
2023/01/07 01:32:41;;;;;;;;;;;8.60;84.20;;;;;;5071789;28;19968;-86
2023/01/07 01:35:06;;;;;;;;;;;8.60;84.00;;;;;;5072462;28;20313;-87
2023/01/07 01:37:32;;;;;;;;;;;8.60;84.20;;;;;;5072959;28;19939;-87
2023/01/07 01:39:57;;;;;;;;;;;8.60;84.20;;;;;;5073036;28;19940;-86
2023/01/07 01:42:24;;;;;;;;;;;8.60;84.20;;;;;;5054657;28;20317;-87
2023/01/07 01:44:49;;;;;;;;;;;8.60;84.40;;;;;;5070544;28;19957;-87
2023/01/07 01:47:19;;;;;;;;;;;8.60;84.30;;;;;;5072949;28;20035;-86
2023/01/07 01:49:48;;;;;;;;;;;8.60;84.10;;;;;;5072966;28;19993;-87
2023/01/07 01:52:15;;;;;;;;;;;8.60;84.20;;;;;;5072372;28;20003;-87
2023/01/07 01:54:42;;;;;;;;;;;8.60;84.00;;;;;;5069518;28;19990;-87
2023/01/07 01:57:08;;;;;;;;;;;8.60;84.00;;;;;;5072834;28;20081;-86
2023/01/07 01:59:36;;;;;;;;;;;8.60;84.00;;;;;;5070491;28;20014;-86
2023/01/07 02:02:02;;;;;;;;;;;8.60;83.80;;;;;;5072546;28;20415;-86
2023/01/07 02:04:29;;;;;;;;;;;8.60;83.90;;;;;;5071527;28;19945;-86
2023/01/07 02:06:57;;;;;;;;;;;8.60;83.70;;;;;;5072764;28;19945;-87
2023/01/07 02:09:23;;;;;;;;;;;8.60;83.80;;;;;;5074512;28;19935;-87
2023/01/07 02:11:58;;;;;;;;;;;8.50;84.00;;;;;;5076471;28;20022;-86
2023/01/07 02:14:32;;;;;;;;;;;8.50;83.70;;;;;;5074524;28;20014;-86
2023/01/07 02:17:13;;;;;;;;;;;8.50;83.80;;;;;;5076481;28;19972;-86
2023/01/07 02:19:53;;;;;;;;;;;8.50;83.50;;;;;;5076458;28;19957;-86
2023/01/07 02:22:44;;;;;;;;;;;8.50;83.60;;;;;;5076157;28;19941;-86
2023/01/07 02:25:28;;;;;;;;;;;8.50;83.60;;;;;;5075437;28;19952;-86
2023/01/07 02:28:08;;;;;;;;;;;8.50;83.40;;;;;;5076611;28;19985;-87
2023/01/07 02:30:34;;;;;;;;;;;8.50;83.70;;;;;;5076077;28;19944;-86
2023/01/07 02:33:23;;;;;;;;;;;8.50;83.80;;;;;;5074438;28;19960;-86
2023/01/07 02:35:59;;;;;;;;;;;8.50;83.70;;;;;;5029330;28;20003;-86
2023/01/07 02:38:43;;;;;;;;;;;8.50;83.80;;;;;;5075259;28;19966;-87
2023/01/07 02:41:09;;;;;;;;;;;8.40;84.00;;;;;;5074485;28;19941;-87
2023/01/07 02:43:45;;;;;;;;;;;8.50;84.00;;;;;;5073832;28;19950;-87
2023/01/07 02:46:15;;;;;;;;;;;8.40;84.00;;;;;;5076067;28;19936;-87
2023/01/07 02:48:43;;;;;;;;;;;8.40;84.10;;;;;;5075958;28;19991;-87
2023/01/07 02:51:08;;;;;;;;;;;8.40;84.00;;;;;;5075678;28;19977;-87
2023/01/07 02:53:34;;;;;;;;;;;8.50;84.00;;;;;;5074110;28;20016;-87
2023/01/07 02:56:05;;;;;;;;;;;8.50;83.80;;;;;;5075768;28;19946;-87
2023/01/07 02:58:49;;;;;;;;;;;8.50;83.80;;;;;;5073420;28;20080;-87
2023/01/07 03:01:18;;;;;;;;;;;8.50;83.80;;;;;;5075533;28;20048;-87
2023/01/07 03:03:50;;;;;;;;;;;8.50;83.90;;;;;;5075029;28;19948;-87
2023/01/07 03:06:33;;;;;;;;;;;8.50;84.10;;;;;;5057735;28;20485;-87
2023/01/07 03:09:17;;;;;;;;;;;8.50;84.10;;;;;;5075314;28;19940;-87
2023/01/07 03:12:01;;;;;;;;;;;8.60;83.90;;;;;;5075566;28;20552;-87
2023/01/07 03:14:33;;;;;;;;;;;8.70;83.60;;;;;;5074681;28;19944;-87
2023/01/07 03:17:01;;;;;;;;;;;8.70;83.20;;;;;;5062924;23;20042;-87
2023/01/07 03:19:31;;;;;;;;;;;8.70;83.40;;;;;;5055100;28;20446;-87
2023/01/07 03:22:00;;;;;;;;;;;8.70;83.20;;;;;;5053902;28;20450;-87
2023/01/07 03:24:27;;;;;;;;;;;8.70;83.00;;;;;;5053562;28;19951;-87
2023/01/07 03:26:54;;;;;;;;;;;8.70;83.00;;;;;;5055271;28;19990;-87
2023/01/07 03:29:21;;;;;;;;;;;8.70;83.00;;;;;;5052667;28;19972;-87
2023/01/07 03:32:12;;;;;;;;;;;8.70;83.10;;;;;;5054849;28;19952;-87
2023/01/07 03:34:38;;;;;;;;;;;8.70;83.20;;;;;;5049371;28;19945;-87
2023/01/07 03:37:06;;;;;;;;;;;8.70;83.10;;;;;;5055069;28;19943;-87
2023/01/07 03:39:33;;;;;;;;;;;8.60;83.00;;;;;;5054685;28;19962;-87
2023/01/07 03:44:43;;;;;;;;;;;8.60;83.10;;;;;;5053190;28;19975;-87
2023/01/07 03:47:08;;;;;;;;;;;8.50;83.40;;;;;;5054920;28;20589;-87
2023/01/07 03:49:35;;;;;;;;;;;8.50;83.50;;;;;;5054583;28;19945;-87
2023/01/07 03:52:00;;;;;;;;;;;8.40;83.80;;;;;;5056609;28;19956;-87
2023/01/07 03:54:26;;;;;;;;;;;8.40;84.00;;;;;;5072445;28;20317;-87
2023/01/07 03:56:51;;;;;;;;;;;8.40;84.20;;;;;;5074631;28;20314;-87
2023/01/07 03:59:17;;;;;;;;;;;8.40;84.10;;;;;;5072149;28;19964;-87
2023/01/07 04:01:42;;;;;;;;;;;8.40;84.20;;;;;;5074634;28;19949;-87
2023/01/07 04:04:08;;;;;;;;;;;8.40;84.10;;;;;;5072884;28;19949;-87
2023/01/07 04:06:33;;;;;;;;;;;8.50;84.30;;;;;;5074493;28;20461;-87
2023/01/07 04:08:59;;;;;;;;;;;8.50;84.20;;;;;;5074450;28;20516;-87
2023/01/07 04:11:24;;;;;;;;;;;8.50;84.30;;;;;;5074217;28;20428;-87
2023/01/07 04:13:50;;;;;;;;;;;8.40;84.60;;;;;;5072240;28;19980;-87
2023/01/07 04:16:15;;;;;;;;;;;8.50;84.30;;;;;;5074143;28;20026;-87
2023/01/07 04:18:41;;;;;;;;;;;8.50;83.80;;;;;;5074178;28;20066;-87
2023/01/07 04:21:06;;;;;;;;;;;8.50;83.90;;;;;;5073965;28;19942;-87
2023/01/07 04:23:32;;;;;;;;;;;8.40;84.40;;;;;;5072419;28;19940;-87
2023/01/07 04:25:58;;;;;;;;;;;8.50;84.40;;;;;;5074116;28;20024;-87
2023/01/07 04:28:23;;;;;;;;;;;8.60;84.30;;;;;;5073028;28;19941;-86
2023/01/07 04:30:48;;;;;;;;;;;8.60;84.00;;;;;;5072458;28;19953;-87
2023/01/07 04:33:14;;;;;;;;;;;8.60;83.90;;;;;;5072969;28;19950;-87
2023/01/07 04:35:40;;;;;;;;;;;8.60;83.70;;;;;;5073217;28;20369;-87
2023/01/07 04:38:05;;;;;;;;;;;8.60;83.60;;;;;;5073581;28;20410;-87
2023/01/07 04:40:31;;;;;;;;;;;8.60;83.60;;;;;;5073874;28;20398;-87
2023/01/07 04:42:56;;;;;;;;;;;8.60;84.00;;;;;;5073811;28;20286;-87
2023/01/07 04:45:22;;;;;;;;;;;8.60;84.00;;;;;;5072865;28;20415;-87
2023/01/07 04:47:48;;;;;;;;;;;8.70;84.10;;;;;;5073300;28;19945;-87
2023/01/07 04:50:13;;;;;;;;;;;8.60;84.30;;;;;;5073663;28;19961;-87
2023/01/07 04:52:39;;;;;;;;;;;8.60;84.50;;;;;;5073570;28;20329;-87
2023/01/07 04:55:04;;;;;;;;;;;8.50;84.50;;;;;;5072563;28;19952;-87
2023/01/07 04:57:30;;;;;;;;;;;8.60;84.30;;;;;;5073485;28;20324;-87
2023/01/07 04:59:55;;;;;;;;;;;8.50;84.20;;;;;;5071370;28;19952;-87
2023/01/07 05:02:21;;;;;;;;;;;8.40;84.30;;;;;;5073453;28;19942;-87
2023/01/07 05:04:47;;;;;;;;;;;8.50;84.40;;;;;;5071493;28;19946;-87
2023/01/07 05:07:12;;;;;;;;;;;8.40;84.40;;;;;;5073381;28;20044;-87
2023/01/07 05:09:38;;;;;;;;;;;8.50;84.80;;;;;;5073365;28;19937;-87
2023/01/07 05:12:03;;;;;;;;;;;8.50;85.60;;;;;;5073341;28;19938;-87
2023/01/07 05:14:29;;;;;;;;;;;8.40;85.80;;;;;;5070949;28;20447;-87
2023/01/07 05:16:54;;;;;;;;;;;8.40;85.60;;;;;;5073088;28;20011;-87
2023/01/07 05:19:20;;;;;;;;;;;8.40;85.30;;;;;;5071451;28;20414;-87
2023/01/07 05:21:46;;;;;;;;;;;8.40;84.90;;;;;;5073198;28;19948;-87
2023/01/07 05:24:12;;;;;;;;;;;8.40;84.60;;;;;;5072453;28;20315;-87
2023/01/07 05:26:37;;;;;;;;;;;8.40;84.40;;;;;;5072887;28;20030;-87
2023/01/07 05:29:03;;;;;;;;;;;8.50;84.00;;;;;;5070986;28;19948;-87
2023/01/07 05:31:28;;;;;;;;;;;8.60;83.70;;;;;;5073126;28;19937;-87
2023/01/07 05:33:54;;;;;;;;;;;8.60;83.50;;;;;;5071565;28;19947;-87
2023/01/07 05:36:19;;;;;;;;;;;8.50;83.60;;;;;;5072860;28;19957;-87
2023/01/07 05:38:45;;;;;;;;;;;8.40;84.60;;;;;;5073014;28;19965;-87
2023/01/07 05:41:10;;;;;;;;;;;8.40;84.70;;;;;;5071373;28;19942;-87
2023/01/07 05:43:36;;;;;;;;;;;8.40;85.20;;;;;;5072412;28;19945;-87
2023/01/07 05:46:01;;;;;;;;;;;8.30;85.50;;;;;;5070846;28;20040;-87
2023/01/07 05:48:27;;;;;;;;;;;8.30;85.10;;;;;;5072969;28;19942;-87
2023/01/07 05:50:53;;;;;;;;;;;8.30;85.10;;;;;;5072932;28;19992;-87
2023/01/07 05:53:18;;;;;;;;;;;8.20;85.10;;;;;;5072248;28;19964;-87
2023/01/07 05:55:44;;;;;;;;;;;8.30;84.90;;;;;;5072528;28;20415;-87
2023/01/07 05:58:10;;;;;;;;;;;8.20;85.00;;;;;;5072799;28;19964;-87
2023/01/07 06:00:36;;;;;;;;;;;8.20;85.10;;;;;;5070668;28;20037;-87
2023/01/07 06:03:02;;;;;;;;;;;8.20;85.20;;;;;;5072831;28;19938;-87
2023/01/07 06:05:28;;;;;;;;;;;8.20;85.30;;;;;;5051833;28;19944;-87
2023/01/07 06:07:53;;;;;;;;;;;8.10;85.70;;;;;;5072512;28;19952;-86
2023/01/07 06:10:19;;;;;;;;;;;8.00;86.00;;;;;;5072736;28;19941;-87
2023/01/07 06:12:44;;;;;;;;;;;8.00;86.30;;;;;;5072711;28;19984;-87
2023/01/07 06:15:10;;;;;;;;;;;8.10;86.10;;;;;;5069130;28;20070;-87
2023/01/07 06:17:36;;;;;;;;;;;8.10;86.30;;;;;;5072631;28;19937;-86
2023/01/07 06:20:02;;;;;;;;;;;8.10;86.20;;;;;;5072600;28;19946;-87
2023/01/07 06:22:27;;;;;;;;;;;8.10;86.40;;;;;;5072659;28;19948;-86
2023/01/07 06:24:53;;;;;;;;;;;8.10;86.40;;;;;;5070612;28;19947;-86
2023/01/07 06:27:18;;;;;;;;;;;8.00;86.50;;;;;;5072596;28;20012;-86
2023/01/07 06:29:44;;;;;;;;;;;7.90;87.10;;;;;;5070270;28;19985;-87
2023/01/07 06:32:09;;;;;;;;;;;8.00;87.30;;;;;;5072594;28;20033;-87
2023/01/07 06:34:35;;;;;;;;;;;8.00;87.00;;;;;;5070328;28;19938;-87
2023/01/07 06:37:00;;;;;;;;;;;8.10;86.80;;;;;;5072496;28;19937;-87
2023/01/07 06:39:26;;;;;;;;;;;8.20;86.60;;;;;;5072386;28;19960;-87
2023/01/07 06:41:51;;;;;;;;;;;8.20;86.50;;;;;;5072499;28;19996;-87
2023/01/07 06:44:17;;;;;;;;;;;8.00;86.70;;;;;;5072487;28;19937;-87
2023/01/07 06:46:42;;;;;;;;;;;8.00;86.90;;;;;;5070301;28;19955;-87
2023/01/07 06:49:08;;;;;;;;;;;8.10;87.00;;;;;;5072328;28;19941;-86
2023/01/07 06:51:33;;;;;;;;;;;8.10;86.80;;;;;;5072398;28;20305;-86
2023/01/07 06:53:59;;;;;;;;;;;8.10;86.70;;;;;;5072233;28;20009;-86
2023/01/07 06:56:24;;;;;;;;;;;8.10;86.80;;;;;;5071804;28;19947;-86
2023/01/07 06:58:50;;;;;;;;;;;8.20;86.90;;;;;;5075744;28;19964;-86
2023/01/07 07:01:16;;;;;;;;;;;8.20;87.00;;;;;;5073596;28;19943;-87
2023/01/07 07:03:41;;;;;;;;;;;8.20;86.80;;;;;;5075770;28;19939;-87
2023/01/07 07:06:07;;;;;;;;;;;8.20;86.80;;;;;;5073961;28;20019;-87
2023/01/07 07:08:32;;;;;;;;;;;8.20;86.80;;;;;;5075631;28;19967;-87
2023/01/07 07:10:58;;;;;;;;;;;8.30;86.90;;;;;;5075846;28;19947;-87
2023/01/07 07:13:23;;;;;;;;;;;8.30;87.30;;;;;;5075594;28;20402;-87
2023/01/07 07:15:49;;;;;;;;;;;8.10;87.50;;;;;;5073399;28;20426;-87
2023/01/07 07:18:15;;;;;;;;;;;8.20;88.00;;;;;;5075370;28;20049;-87
2023/01/07 07:20:41;;;;;;;;;;;8.10;88.10;;;;;;5075408;28;20303;-87
2023/01/07 07:23:06;;;;;;;;;;;8.20;88.10;;;;;;5075656;28;19941;-87
2023/01/07 07:25:32;;;;;;;;;;;8.10;87.90;;;;;;5074475;28;20415;-87
2023/01/07 07:27:57;;;;;;;;;;;8.10;87.80;;;;;;5075104;28;20005;-87
2023/01/07 07:30:23;;;;;;;;;;;8.30;87.70;;;;;;5053210;28;19945;-87
2023/01/07 07:32:48;;;;;;;;;;;8.20;87.30;;;;;;5074224;28;20301;-87
2023/01/07 07:35:14;;;;;;;;;;;8.20;87.10;;;;;;5075144;28;20473;-87
2023/01/07 07:37:39;;;;;;;;;;;8.10;87.20;;;;;;5070617;28;19949;-87
2023/01/07 07:40:05;;;;;;;;;;;7.90;87.60;;;;;;5074285;28;19940;-87
2023/01/07 07:42:31;;;;;;;;;;;8.10;87.60;;;;;;5074189;28;19942;-87
2023/01/07 07:44:56;;;;;;;;;;;8.10;87.40;;;;;;5074059;28;19986;-87
2023/01/07 07:47:22;;;;;;;;;;;8.10;87.70;;;;;;5073529;28;19995;-87
2023/01/07 07:49:49;;;;;;;;;;;8.20;88.00;;;;;;5074891;28;20410;-87
2023/01/07 07:52:14;;;;;;;;;;;8.30;88.10;;;;;;5074522;28;19981;-87
2023/01/07 07:54:40;;;;;;;;;;;8.20;88.20;;;;;;5074700;28;19939;-87
2023/01/07 07:57:05;;;;;;;;;;;8.30;88.40;;;;;;5072898;28;20399;-87
2023/01/07 07:59:31;;;;;;;;;;;8.40;88.40;;;;;;5074633;28;19957;-87
2023/01/07 08:01:56;;;;;;;;;;;8.40;88.30;;;;;;5070960;28;19945;-87
2023/01/07 08:04:22;;;;;;;;;;;8.40;88.20;;;;;;5074577;28;19994;-87
2023/01/07 08:06:47;;;;;;;;;;;8.60;87.80;;;;;;5073452;28;20032;-87
2023/01/07 08:09:13;;;;;;;;;;;8.60;87.30;;;;;;5074139;28;19944;-87
2023/01/07 08:11:38;;;;;;;;;;;8.60;87.30;;;;;;5074465;28;19949;-87
2023/01/07 08:14:04;;;;;;;;;;;8.70;86.90;;;;;;5073923;28;20061;-87
2023/01/07 08:16:29;;;;;;;;;;;8.70;86.20;;;;;;5071977;28;19973;-87
2023/01/07 08:18:55;;;;;;;;;;;8.70;85.90;;;;;;5074427;28;19962;-87
2023/01/07 08:21:20;;;;;;;;;;;8.80;86.10;;;;;;5074247;28;19949;-87
2023/01/07 08:23:46;;;;;;;;;;;8.90;86.20;;;;;;5072301;28;19944;-87
2023/01/07 08:26:11;;;;;;;;;;;8.90;86.20;;;;;;5074132;28;20310;-87
2023/01/07 08:28:37;;;;;;;;;;;8.90;86.20;;;;;;5073228;28;19955;-87
2023/01/07 08:31:04;;;;;;;;;;;8.90;86.20;;;;;;5073161;28;19987;-87
2023/01/07 08:33:30;;;;;;;;;;;9.00;85.80;;;;;;5073776;28;19944;-86
2023/01/07 08:35:55;;;;;;;;;;;9.10;85.40;;;;;;5073992;28;19997;-86
2023/01/07 08:38:21;;;;;;;;;;;9.10;85.20;;;;;;5073639;28;20009;-87
2023/01/07 08:40:48;;;;;;;;;;;9.10;85.10;;;;;;5073149;28;20001;-87
2023/01/07 08:43:13;;;;;;;;;;;9.00;85.40;;;;;;5073578;28;19957;-87
2023/01/07 08:45:39;;;;;;;;;;;9.00;85.40;;;;;;5071500;28;19950;-87
2023/01/07 08:48:04;;;;;;;;;;;9.00;85.10;;;;;;5073725;28;20029;-87
2023/01/07 08:50:31;;;;;;;;;;;9.10;85.10;;;;;;5073720;28;20459;-87
2023/01/07 08:52:57;;;;;;;;;;;9.30;84.60;;;;;;5071590;28;19965;-87
2023/01/07 08:55:23;;;;;;;;;;;9.50;83.90;;;;;;5073469;28;20386;-87
2023/01/07 08:57:48;;;;;;;;;;;9.60;83.40;;;;;;5072366;28;19954;-87
2023/01/07 09:00:15;;;;;;;;;;;9.80;83.20;;;;;;5071147;28;19941;-87
2023/01/07 09:02:40;;;;;;;;;;;9.90;82.50;;;;;;5073247;28;19954;-87
2023/01/07 09:05:06;;;;;;;;;;;10.10;81.90;;;;;;5071374;28;19952;-86
2023/01/07 09:07:31;;;;;;;;;;;10.00;80.90;;;;;;5073421;28;19937;-86
2023/01/07 09:09:57;;;;;;;;;;;9.90;81.40;;;;;;5070799;28;19946;-86
2023/01/07 09:12:22;;;;;;;;;;;9.70;81.20;;;;;;5071676;28;20320;-87
2023/01/07 09:14:48;;;;;;;;;;;9.60;81.10;;;;;;5073063;28;19938;-87
2023/01/07 09:17:13;;;;;;;;;;;9.60;79.70;;;;;;5071018;28;19942;-87
2023/01/07 09:19:39;;;;;;;;;;;9.40;78.30;;;;;;5071688;28;20123;-86
2023/01/07 09:22:04;;;;;;;;;;;9.60;75.60;;;;;;5070914;28;19956;-87
2023/01/07 09:24:30;;;;;;;;;;;9.90;75.00;;;;;;5073210;28;20396;-87
2023/01/07 09:26:55;;;;;;;;;;;10.00;74.00;;;;;;5073197;28;19938;-87
2023/01/07 09:29:21;;;;;;;;;;;10.10;73.00;;;;;;5070412;28;20436;-86
2023/01/07 09:31:47;;;;;;;;;;;10.20;73.40;;;;;;5069531;28;20008;-86
2023/01/07 09:34:12;;;;;;;;;;;10.30;73.50;;;;;;5061251;28;19949;-87
2023/01/07 09:36:38;;;;;;;;;;;10.30;73.50;;;;;;5070792;28;20025;-86
2023/01/07 09:39:03;;;;;;;;;;;10.20;73.50;;;;;;5069616;28;19970;-86
2023/01/07 09:41:29;;;;;;;;;;;10.10;74.20;;;;;;5072458;28;19945;-86
2023/01/07 09:43:58;;;;;;;;;;;10.10;74.90;;;;;;5069925;28;19946;-86
2023/01/07 09:46:24;;;;;;;;;;;10.10;76.00;;;;;;5072059;28;20385;-86
2023/01/07 09:48:52;;;;;;;;;;;10.10;76.10;;;;;;5069444;28;19941;-86
2023/01/07 09:51:20;;;;;;;;;;;10.20;76.00;;;;;;5070168;28;19949;-87
2023/01/07 09:53:53;;;;;;;;;;;10.40;76.80;;;;;;5069936;28;19957;-87
2023/01/07 09:56:38;;;;;;;;;;;10.50;76.90;;;;;;5050221;28;19990;-87
2023/01/07 09:59:05;;;;;;;;;;;10.60;77.20;;;;;;5070398;28;19961;-86
2023/01/07 10:01:35;;;;;;;;;;;10.70;75.80;;;;;;5068685;28;20332;-87
2023/01/07 10:04:01;;;;;;;;;;;10.80;75.30;;;;;;5071761;28;19952;-87
2023/01/07 10:06:41;;;;;;;;;;;10.90;74.80;;;;;;5072482;28;19945;-86
2023/01/07 10:09:18;;;;;;;;;;;10.80;75.40;;;;;;5067887;28;20038;-86
2023/01/07 10:11:50;;;;;;;;;;;10.70;76.70;;;;;;5072567;28;19948;-86
2023/01/07 10:14:31;;;;;;;;;;;10.70;77.90;;;;;;5062696;28;20004;-87
2023/01/07 10:16:56;;;;;;;;;;;10.70;78.40;;;;;;5068218;28;19983;-87
2023/01/07 10:19:54;;;;;;;;;;;10.60;77.60;;;;;;5052577;28;19959;-86
2023/01/07 10:22:23;;;;;;;;;;;10.60;78.60;;;;;;5008312;28;20009;-86
2023/01/07 10:24:51;;;;;;;;;;;10.60;77.80;;;;;;5062068;28;19952;-86
2023/01/07 10:27:19;;;;;;;;;;;10.80;78.90;;;;;;5063947;28;20439;-87
2023/01/07 10:29:49;;;;;;;;;;;10.80;77.80;;;;;;5070248;28;19950;-87
2023/01/07 10:32:16;;;;;;;;;;;11.00;77.50;;;;;;5074085;28;19950;-87
2023/01/07 10:34:43;;;;;;;;;;;11.10;77.60;;;;;;5074745;28;19948;-87
2023/01/07 10:37:28;;;;;;;;;;;11.20;76.90;;;;;;5073868;28;19947;-86
2023/01/07 10:39:56;;;;;;;;;;;11.30;75.00;;;;;;5071356;28;20020;-87
2023/01/07 10:42:27;;;;;;;;;;;11.30;75.30;;;;;;5071495;28;19949;-86
2023/01/07 10:44:52;;;;;;;;;;;11.20;74.70;;;;;;5073429;28;19957;-86
2023/01/07 10:47:24;;;;;;;;;;;11.10;74.20;;;;;;5049776;28;20336;-86
2023/01/07 10:49:58;;;;;;;;;;;11.00;74.40;;;;;;5069655;28;20426;-86
2023/01/07 10:52:50;;;;;;;;;;;11.10;74.50;;;;;;5073668;28;19940;-87
2023/01/07 10:55:31;;;;;;;;;;;11.10;74.10;;;;;;5033850;28;19940;-86
2023/01/07 10:57:56;;;;;;;;;;;11.30;73.00;;;;;;5073244;28;19952;-86
2023/01/07 11:00:23;;;;;;;;;;;11.30;72.70;;;;;;5067935;28;19952;-86
2023/01/07 11:02:53;;;;;;;;;;;11.30;72.20;;;;;;5073077;28;19956;-86
2023/01/07 11:05:21;;;;;;;;;;;11.40;72.50;;;;;;5075738;28;19989;-86
2023/01/07 11:07:49;;;;;;;;;;;11.40;71.40;;;;;;5065958;28;19951;-86
2023/01/07 11:10:20;;;;;;;;;;;11.60;71.40;;;;;;5065663;28;19942;-86
2023/01/07 11:12:51;;;;;;;;;;;11.70;70.00;;;;;;5073989;28;19948;-86
2023/01/07 11:15:31;;;;;;;;;;;11.70;70.10;;;;;;5066289;22;20068;-86
2023/01/07 11:18:04;;;;;;;;;;;11.70;70.50;;;;;;5004187;28;19955;-86
2023/01/07 11:20:49;;;;;;;;;;;11.70;69.80;;;;;;5011532;28;19963;-86
2023/01/07 11:23:23;;;;;;;;;;;11.90;69.90;;;;;;5014414;28;20033;-86
2023/01/07 11:25:48;;;;;;;;;;;11.90;68.40;;;;;;5013998;28;19947;-86
2023/01/07 11:28:17;;;;;;;;;;;12.10;68.90;;;;;;5014530;28;20076;-86
2023/01/07 11:30:42;;;;;;;;;;;12.40;68.00;;;;;;5012514;28;19944;-86
2023/01/07 11:33:17;;;;;;;;;;;12.40;67.50;;;;;;5015545;28;20024;-86
2023/01/07 11:35:50;;;;;;;;;;;12.60;66.60;;;;;;5013442;28;19995;-86
2023/01/07 11:38:30;;;;;;;;;;;12.50;65.90;;;;;;5012839;28;19989;-87
2023/01/07 11:40:57;;;;;;;;;;;12.90;64.80;;;;;;5013255;28;20098;-87
2023/01/07 11:43:23;;;;;;;;;;;13.10;64.30;;;;;;5012816;28;19941;-86
2023/01/07 11:45:54;;;;;;;;;;;13.20;63.70;;;;;;5002473;28;19950;-86
2023/01/07 11:48:26;;;;;;;;;;;13.30;63.90;;;;;;5014831;28;19953;-87
2023/01/07 11:50:52;;;;;;;;;;;13.60;62.50;;;;;;5015202;28;19941;-87
2023/01/07 11:53:17;;;;;;;;;;;13.90;62.00;;;;;;5015025;28;19957;-87
2023/01/07 11:55:57;;;;;;;;;;;14.30;60.80;;;;;;5014957;28;19939;-86
2023/01/07 11:58:23;;;;;;;;;;;14.80;58.10;;;;;;5014338;28;20113;-87
2023/01/07 12:01:07;;;;;;;;;;;15.30;57.10;;;;;;5015061;28;19940;-87
2023/01/07 12:03:33;;;;;;;;;;;15.80;55.00;;;;;;5015226;28;19967;-86
2023/01/07 12:06:01;;;;;;;;;;;16.00;53.80;;;;;;5014930;28;19942;-87
2023/01/07 12:08:26;;;;;;;;;;;16.10;53.40;;;;;;5013397;28;19947;-86
2023/01/07 12:10:56;;;;;;;;;;;16.20;53.30;;;;;;5014836;28;19946;-87
2023/01/07 12:13:24;;;;;;;;;;;16.30;53.80;;;;;;5014743;28;19947;-87
2023/01/07 12:15:56;;;;;;;;;;;16.70;52.30;;;;;;5014582;28;19979;-87
2023/01/07 12:18:24;;;;;;;;;;;16.60;52.10;;;;;;5014544;28;20020;-87
2023/01/07 12:20:58;;;;;;;;;;;16.60;52.80;;;;;;5014669;28;19939;-86
2023/01/07 12:23:27;;;;;;;;;;;16.50;52.80;;;;;;5014577;28;20355;-86
2023/01/07 12:25:55;;;;;;;;;;;16.20;53.80;;;;;;5014519;28;20287;-87
2023/01/07 12:28:37;;;;;;;;;;;16.70;52.10;;;;;;4996658;28;20585;-87
2023/01/07 12:31:02;;;;;;;;;;;17.10;51.10;;;;;;5014458;28;20375;-87
2023/01/07 12:33:38;;;;;;;;;;;17.80;49.10;;;;;;5014388;28;20030;-87
2023/01/07 12:36:15;;;;;;;;;;;17.80;48.70;;;;;;5014355;28;19937;-87
2023/01/07 12:38:40;;;;;;;;;;;16.90;50.30;;;;;;4994616;28;20409;-87
2023/01/07 12:41:24;;;;;;;;;;;16.30;51.70;;;;;;4994670;28;19989;-87
2023/01/07 12:43:58;;;;;;;;;;;16.20;51.90;;;;;;4994618;28;19943;-87
2023/01/07 12:46:25;;;;;;;;;;;15.60;53.20;;;;;;4996589;28;19940;-87
2023/01/07 12:49:07;;;;;;;;;;;15.70;53.80;;;;;;5014142;28;19951;-87
2023/01/07 12:51:33;;;;;;;;;;;16.30;52.40;;;;;;5013827;28;20608;-87
2023/01/07 12:54:00;;;;;;;;;;;16.10;53.60;;;;;;5013763;28;19964;-87
2023/01/07 12:56:38;;;;;;;;;;;16.30;53.40;;;;;;5013622;28;19939;-87
2023/01/07 12:59:11;;;;;;;;;;;16.00;52.90;;;;;;4996228;28;20454;-87
2023/01/07 13:01:59;;;;;;;;;;;15.90;53.40;;;;;;5013951;28;19940;-87
2023/01/07 13:04:38;;;;;;;;;;;15.90;53.00;;;;;;5013892;28;19942;-87
2023/01/07 13:07:10;;;;;;;;;;;15.60;54.30;;;;;;5013568;28;19989;-87
2023/01/07 13:09:38;;;;;;;;;;;15.30;54.50;;;;;;5013795;28;19942;-87
2023/01/07 13:14:59;;;;;;;;;;;15.10;54.70;;;;;;5013816;28;19942;-87
2023/01/07 13:17:26;;;;;;;;;;;15.20;55.10;;;;;;5013278;28;20007;-87
2023/01/07 13:19:53;;;;;;;;;;;15.60;53.60;;;;;;5013600;28;19960;-87
2023/01/07 13:22:33;;;;;;;;;;;15.70;53.00;;;;;;5013626;28;20030;-87
2023/01/07 13:25:12;;;;;;;;;;;15.30;54.30;;;;;;5013528;28;20482;-87
2023/01/07 13:27:57;;;;;;;;;;;14.80;55.50;;;;;;5013293;28;20010;-87
2023/01/07 13:30:26;;;;;;;;;;;14.30;57.30;;;;;;5013488;28;19981;-87
2023/01/07 13:33:16;;;;;;;;;;;13.90;58.90;;;;;;5013734;28;20029;-86
2023/01/07 13:35:46;;;;;;;;;;;13.50;60.40;;;;;;5013383;28;20419;-87
2023/01/07 13:38:21;;;;;;;;;;;13.10;61.00;;;;;;5012970;28;19966;-87
2023/01/07 13:41:07;;;;;;;;;;;12.60;63.30;;;;;;5013388;28;19940;-86
2023/01/07 13:43:32;;;;;;;;;;;12.20;64.90;;;;;;5012551;28;20321;-86
2023/01/07 13:46:01;;;;;;;;;;;11.90;65.20;;;;;;5013279;28;19937;-87
2023/01/07 13:48:27;;;;;;;;;;;11.90;65.90;;;;;;5012927;28;20004;-87
2023/01/07 13:50:55;;;;;;;;;;;11.90;66.90;;;;;;5013320;28;19978;-87
2023/01/07 13:53:24;;;;;;;;;;;11.90;66.10;;;;;;4995562;28;20014;-86
2023/01/07 13:55:50;;;;;;;;;;;12.00;66.20;;;;;;5013125;28;19941;-87
2023/01/07 13:58:27;;;;;;;;;;;12.10;66.20;;;;;;5012919;28;20010;-87
2023/01/07 14:01:13;;;;;;;;;;;12.10;66.30;;;;;;5013187;28;20455;-87
2023/01/07 14:03:41;;;;;;;;;;;12.10;66.00;;;;;;4995979;28;19950;-86
2023/01/07 14:06:18;;;;;;;;;;;12.00;66.00;;;;;;5016118;28;20033;-87
2023/01/07 14:08:50;;;;;;;;;;;11.90;66.30;;;;;;5016558;28;20029;-87
2023/01/07 14:11:16;;;;;;;;;;;11.80;66.40;;;;;;5017066;28;19937;-87
2023/01/07 14:13:42;;;;;;;;;;;11.70;67.70;;;;;;5016983;28;19939;-87
2023/01/07 14:16:26;;;;;;;;;;;11.70;66.30;;;;;;5016840;28;20066;-87
2023/01/07 14:19:10;;;;;;;;;;;11.80;66.70;;;;;;5016452;28;20433;-87
2023/01/07 14:22:08;;;;;;;;;;;11.70;67.10;;;;;;5016871;28;19940;-87
2023/01/07 14:25:10;;;;;;;;;;;11.60;66.20;;;;;;4992206;28;20047;-87
2023/01/07 14:27:43;;;;;;;;;;;11.60;66.70;;;;;;4935742;29;19948;-87
2023/01/07 14:30:19;;;;;;;;;;;11.60;67.30;;;;;;5002842;28;20037;-87
2023/01/07 14:32:46;;;;;;;;;;;11.60;67.00;;;;;;5005670;28;19956;-88
2023/01/07 14:35:11;;;;;;;;;;;11.60;67.20;;;;;;5014572;28;19974;-87
2023/01/07 14:37:38;;;;;;;;;;;11.50;67.80;;;;;;5012918;28;20390;-87
2023/01/07 14:40:24;;;;;;;;;;;11.40;68.40;;;;;;5016489;28;19963;-87
2023/01/07 14:42:49;;;;;;;;;;;11.40;68.80;;;;;;4999064;28;19943;-87